Time;durP1;ratioP1;P1;durP2;ratioP2;P2;SDS_P1;SDS_P2;PMS_P1;PMS_P2;Temp;Humidity;BMP_temperature;BMP_pressure;BME280_temperature;BME280_humidity;BME280_pressure;Samples;Min_cycle;Max_cycle;Signal;HPM_P1;HPM_P2
2022/03/18 00:04:51;;;;;;;;;;;;;;;8.78;61.56;99531.22;5028295;23;19926;-85
2022/03/18 00:54:28;;;;;;;;;;;;;;;8.17;64.25;99558.56;4999354;28;19955;-81
2022/03/18 00:57:20;;;;;;;;;;;;;;;8.04;64.21;99556.25;5012922;28;19936;-83
2022/03/18 00:59:48;;;;;;;;;;;;;;;8.18;63.80;99557.47;5018582;28;20391;-83
2022/03/18 01:02:16;;;;;;;;;;;;;;;8.11;64.33;99562.28;5014421;28;19941;-82
2022/03/18 01:04:44;;;;;;;;;;;;;;;8.01;64.15;99559.47;5009713;28;19940;-82
2022/03/18 01:07:18;;;;;;;;;;;;;;;8.10;64.03;99563.38;5022730;28;19937;-82
2022/03/18 01:09:47;;;;;;;;;;;;;;;7.95;64.90;99568.59;5021316;28;20470;-83
2022/03/18 01:12:15;;;;;;;;;;;;;;;7.95;64.99;99564.00;4995178;28;19936;-81
2022/03/18 01:14:46;;;;;;;;;;;;;;;7.96;64.90;99570.25;5016384;28;19994;-82
2022/03/18 01:17:14;;;;;;;;;;;;;;;7.90;64.92;99572.06;5010188;28;19929;-81
2022/03/18 01:19:42;;;;;;;;;;;;;;;7.83;65.17;99569.56;5016655;28;19930;-82
2022/03/18 01:22:10;;;;;;;;;;;;;;;7.88;64.85;99577.75;5007607;28;19959;-85
2022/03/18 01:24:39;;;;;;;;;;;;;;;7.85;65.46;99578.22;5018070;28;19947;-84
2022/03/18 01:27:07;;;;;;;;;;;;;;;7.87;65.33;99583.38;5017335;28;19929;-82
2022/03/18 01:29:35;;;;;;;;;;;;;;;7.95;64.58;99577.53;5016507;28;20031;-84
2022/03/18 01:32:03;;;;;;;;;;;;;;;7.85;64.84;99578.22;5009091;28;19929;-79
2022/03/18 01:34:32;;;;;;;;;;;;;;;7.95;64.89;99582.13;5016261;28;20020;-82
2022/03/18 01:37:11;;;;;;;;;;;;;;;7.72;65.18;99575.09;5022213;28;23060;-82
2022/03/18 01:39:41;;;;;;;;;;;;;;;7.87;65.25;99586.09;5019158;28;19980;-84
2022/03/18 01:42:09;;;;;;;;;;;;;;;7.77;65.51;99589.47;5020290;28;19987;-83
2022/03/18 01:44:41;;;;;;;;;;;;;;;7.71;65.61;99586.97;5018519;28;19940;-83
2022/03/18 01:47:09;;;;;;;;;;;;;;;7.77;65.08;99591.38;5017349;28;20379;-82
2022/03/18 01:49:37;;;;;;;;;;;;;;;7.75;65.70;99591.63;5010329;28;20124;-81
2022/03/18 01:52:06;;;;;;;;;;;;;;;7.82;65.00;99591.44;5019017;28;19928;-84
2022/03/18 01:57:19;;;;;;;;;;;;;;;7.54;66.07;99595.16;5000989;28;20057;-82
2022/03/18 01:59:49;;;;;;;;;;;;;;;7.64;66.07;99598.00;5022063;28;20112;-83
2022/03/18 02:02:18;;;;;;;;;;;;;;;7.81;65.71;99598.75;5014590;28;20028;-82
2022/03/18 02:04:47;;;;;;;;;;;;;;;7.51;66.52;99598.34;5019096;28;19937;-80
2022/03/18 02:07:40;;;;;;;;;;;;;;;7.53;66.69;99605.16;5015768;28;19933;-83
2022/03/18 02:10:09;;;;;;;;;;;;;;;7.59;66.43;99611.44;5015901;28;20354;-83
2022/03/18 02:12:39;;;;;;;;;;;;;;;7.70;65.67;99615.91;4992348;28;19936;-83
2022/03/18 02:15:09;;;;;;;;;;;;;;;7.57;66.21;99619.00;5027406;28;20302;-85
2022/03/18 02:17:38;;;;;;;;;;;;;;;7.64;66.15;99625.03;5017384;28;19934;-82
2022/03/18 02:20:06;;;;;;;;;;;;;;;7.47;66.39;99622.38;5017669;28;19929;-81
2022/03/18 02:22:37;;;;;;;;;;;;;;;7.59;65.94;99622.25;5015545;28;19933;-84
2022/03/18 02:25:12;;;;;;;;;;;;;;;7.66;66.16;99616.66;5016236;28;19929;-85
2022/03/18 02:27:41;;;;;;;;;;;;;;;7.54;66.29;99617.59;5018594;28;20391;-82
2022/03/18 02:30:09;;;;;;;;;;;;;;;7.57;66.11;99622.53;5013981;28;19972;-83
2022/03/18 02:32:37;;;;;;;;;;;;;;;7.57;66.53;99624.41;5011076;28;20191;-82
2022/03/18 02:35:05;;;;;;;;;;;;;;;7.54;66.03;99616.78;5019287;28;19925;-80
2022/03/18 02:37:33;;;;;;;;;;;;;;;7.57;66.16;99622.53;5017305;28;19933;-80
2022/03/18 02:40:03;;;;;;;;;;;;;;;7.61;65.86;99625.53;5013994;28;19927;-81
2022/03/18 02:42:31;;;;;;;;;;;;;;;7.51;66.32;99628.09;5009815;28;19944;-81
2022/03/18 02:45:00;;;;;;;;;;;;;;;7.51;66.43;99628.94;5021484;28;20422;-82
2022/03/18 02:47:29;;;;;;;;;;;;;;;7.55;65.90;99629.22;4996228;28;19928;-84
2022/03/18 02:49:56;;;;;;;;;;;;;;;7.43;66.35;99628.53;5015328;28;19925;-82
2022/03/18 02:52:25;;;;;;;;;;;;;;;7.47;66.19;99630.50;5012104;28;19975;-82
2022/03/18 02:54:53;;;;;;;;;;;;;;;7.33;66.65;99623.78;5014599;28;19930;-81
2022/03/18 02:57:23;;;;;;;;;;;;;;;7.34;66.75;99634.34;5017908;28;19925;-81
2022/03/18 02:59:51;;;;;;;;;;;;;;;7.25;67.04;99635.84;5016357;28;19930;-81
2022/03/18 03:02:19;;;;;;;;;;;;;;;7.19;67.17;99639.53;5017482;28;20020;-81
2022/03/18 03:10:25;;;;;;;;;;;;;;;7.20;66.78;99646.59;5001484;28;19925;-85
2022/03/18 03:12:54;;;;;;;;;;;;;;;7.16;67.34;99645.44;5016410;28;20040;-82
2022/03/18 03:15:33;;;;;;;;;;;;;;;7.11;67.37;99653.47;5017825;28;19947;-82
2022/03/18 03:18:01;;;;;;;;;;;;;;;7.03;67.38;99653.84;5019286;28;20028;-83
2022/03/18 03:20:36;;;;;;;;;;;;;;;7.13;67.29;99656.72;5010846;28;19924;-82
2022/03/18 03:23:05;;;;;;;;;;;;;;;7.15;67.19;99660.03;5021338;28;20386;-81
2022/03/18 03:25:34;;;;;;;;;;;;;;;7.13;67.29;99664.00;5020379;28;19977;-82
2022/03/18 03:28:03;;;;;;;;;;;;;;;7.07;67.30;99679.31;5017849;28;19934;-80
2022/03/18 03:30:31;;;;;;;;;;;;;;;7.03;67.16;99678.19;5017945;28;19932;-84
2022/03/18 03:32:59;;;;;;;;;;;;;;;7.04;67.22;99679.84;5016165;28;20302;-84
2022/03/18 03:35:37;;;;;;;;;;;;;;;7.06;67.47;99683.09;5021588;28;20019;-82
2022/03/18 03:38:07;;;;;;;;;;;;;;;7.13;67.17;99689.16;5017599;28;19926;-80
2022/03/18 03:40:36;;;;;;;;;;;;;;;7.16;66.32;99694.09;5018997;28;19955;-82
2022/03/18 03:43:06;;;;;;;;;;;;;;;7.08;66.49;99691.78;5019486;28;19925;-84
2022/03/18 03:45:35;;;;;;;;;;;;;;;7.12;66.18;99695.63;5020302;28;19925;-82
2022/03/18 03:48:03;;;;;;;;;;;;;;;7.01;66.08;99686.53;5009593;28;19952;-82
2022/03/18 03:50:31;;;;;;;;;;;;;;;7.20;65.81;99689.03;5012487;28;19948;-80
2022/03/18 03:52:59;;;;;;;;;;;;;;;6.98;66.19;99697.03;5021234;28;19929;-81
2022/03/18 03:55:27;;;;;;;;;;;;;;;7.03;65.74;99703.34;5021005;28;20307;-81
2022/03/18 03:57:55;;;;;;;;;;;;;;;7.01;66.38;99705.44;5016808;28;20388;-84
2022/03/18 04:00:47;;;;;;;;;;;;;;;6.91;66.07;99709.84;5026317;28;20594;-81
2022/03/18 04:03:17;;;;;;;;;;;;;;;6.78;66.48;99724.50;5019443;28;20290;-81
2022/03/18 04:05:45;;;;;;;;;;;;;;;6.87;66.13;99714.09;5026193;28;20016;-81
2022/03/18 04:08:13;;;;;;;;;;;;;;;6.80;66.63;99712.38;5022179;28;19930;-84
2022/03/18 04:10:45;;;;;;;;;;;;;;;6.92;66.02;99723.13;5022962;28;19983;-82
2022/03/18 04:13:15;;;;;;;;;;;;;;;6.91;65.98;99726.06;5018617;28;20345;-81
2022/03/18 04:15:45;;;;;;;;;;;;;;;6.76;66.51;99722.00;5018642;28;20024;-84
2022/03/18 04:18:15;;;;;;;;;;;;;;;6.89;66.30;99739.84;5018616;28;19925;-80
2022/03/18 04:20:45;;;;;;;;;;;;;;;6.88;66.31;99731.97;5015464;28;20410;-84
2022/03/18 04:23:12;;;;;;;;;;;;;;;6.83;66.41;99738.09;5009829;28;19933;-81
2022/03/18 04:25:41;;;;;;;;;;;;;;;6.93;66.15;99740.19;5021013;28;19968;-81
2022/03/18 04:28:09;;;;;;;;;;;;;;;6.93;66.08;99738.28;5020363;28;20007;-80
2022/03/18 04:30:37;;;;;;;;;;;;;;;7.00;65.45;99746.25;5024867;28;20371;-81
2022/03/18 04:33:14;;;;;;;;;;;;;;;6.96;65.64;99742.38;5023802;28;19955;-83
2022/03/18 04:35:45;;;;;;;;;;;;;;;7.01;65.82;99747.88;5017994;28;20316;-83
2022/03/18 04:38:15;;;;;;;;;;;;;;;6.90;65.50;99752.28;5017813;28;19952;-83
2022/03/18 04:40:44;;;;;;;;;;;;;;;7.10;65.29;99757.22;5018292;28;20004;-82
2022/03/18 04:43:12;;;;;;;;;;;;;;;7.07;65.50;99771.22;5020383;28;20308;-83
2022/03/18 04:45:44;;;;;;;;;;;;;;;7.11;65.23;99774.25;5017612;28;19983;-80
2022/03/18 04:48:15;;;;;;;;;;;;;;;6.94;65.82;99768.81;5019334;28;20001;-82
2022/03/18 04:50:42;;;;;;;;;;;;;;;7.03;65.55;99778.16;5012051;28;20336;-80
2022/03/18 04:53:10;;;;;;;;;;;;;;;7.27;65.37;99782.41;4999032;28;19996;-79
2022/03/18 04:55:40;;;;;;;;;;;;;;;7.33;65.31;99792.22;5003750;28;19926;-80
2022/03/18 04:58:08;;;;;;;;;;;;;;;7.15;65.96;99789.75;4984658;28;20003;-84
2022/03/18 05:00:36;;;;;;;;;;;;;;;7.21;65.79;99787.97;5006317;28;19925;-83
2022/03/18 05:03:29;;;;;;;;;;;;;;;7.01;66.00;99800.03;5005921;28;19937;-84
2022/03/18 05:06:11;;;;;;;;;;;;;;;6.93;66.10;99796.91;4995288;28;19937;-83
2022/03/18 05:08:39;;;;;;;;;;;;;;;7.00;66.50;99803.81;5002666;28;19929;-81
2022/03/18 05:11:08;;;;;;;;;;;;;;;6.78;66.76;99795.56;5004532;28;19980;-83
2022/03/18 05:13:44;;;;;;;;;;;;;;;6.78;66.73;99800.94;4981433;28;19925;-82
2022/03/18 05:16:12;;;;;;;;;;;;;;;6.85;66.90;99802.69;5005904;28;19930;-80
2022/03/18 05:18:41;;;;;;;;;;;;;;;7.04;65.96;99804.97;5006293;28;19936;-83
2022/03/18 05:21:09;;;;;;;;;;;;;;;7.03;66.21;99807.88;5004876;28;20354;-87
2022/03/18 05:23:37;;;;;;;;;;;;;;;6.81;66.28;99811.25;5003695;28;20356;-77
2022/03/18 05:26:09;;;;;;;;;;;;;;;6.92;66.15;99806.06;4996122;28;19969;-81
2022/03/18 05:28:37;;;;;;;;;;;;;;;6.79;66.63;99817.97;5017267;28;19925;-82
2022/03/18 05:31:08;;;;;;;;;;;;;;;6.68;66.27;99827.75;5012792;28;19925;-81
2022/03/18 05:33:39;;;;;;;;;;;;;;;6.58;66.63;99816.75;5005994;28;19929;-80
2022/03/18 05:36:08;;;;;;;;;;;;;;;6.62;66.90;99823.31;4991310;28;20314;-83
2022/03/18 05:38:36;;;;;;;;;;;;;;;6.60;66.72;99825.41;5001474;28;20426;-80
2022/03/18 05:41:07;;;;;;;;;;;;;;;6.48;67.26;99827.31;5003632;28;19952;-82
2022/03/18 05:43:39;;;;;;;;;;;;;;;6.56;66.79;99835.91;5008825;28;19933;-81
2022/03/18 05:46:07;;;;;;;;;;;;;;;6.48;67.23;99832.72;5004402;28;19925;-81
2022/03/18 05:48:39;;;;;;;;;;;;;;;6.66;66.81;99839.84;5007771;28;19926;-81
2022/03/18 05:51:08;;;;;;;;;;;;;;;6.76;66.62;99843.56;5016739;28;19984;-82
2022/03/18 05:53:37;;;;;;;;;;;;;;;6.76;66.24;99846.28;5021930;28;19925;-80
2022/03/18 05:58:58;;;;;;;;;;;;;;;6.73;65.99;99852.19;5014472;28;19926;-78
2022/03/18 06:01:27;;;;;;;;;;;;;;;6.73;65.75;99857.56;5020865;28;19925;-87
2022/03/18 06:03:56;;;;;;;;;;;;;;;6.70;65.71;99854.53;5028674;28;20351;-83
2022/03/18 06:06:27;;;;;;;;;;;;;;;6.64;65.94;99856.28;4993695;28;20006;-81
2022/03/18 06:11:51;;;;;;;;;;;;;;;6.75;65.63;99860.84;4992530;28;20393;-75
2022/03/18 06:14:23;;;;;;;;;;;;;;;6.63;65.95;99868.16;5010045;28;20463;-84
2022/03/18 06:16:51;;;;;;;;;;;;;;;6.57;66.48;99869.94;5018379;28;19929;-85
2022/03/18 06:19:20;;;;;;;;;;;;;;;6.67;66.19;99873.91;5007408;28;19929;-80
2022/03/18 06:21:48;;;;;;;;;;;;;;;6.76;65.91;99875.19;5020638;28;19934;-77
2022/03/18 06:24:20;;;;;;;;;;;;;;;6.67;66.20;99879.31;5034623;28;19925;-82
2022/03/18 06:27:12;;;;;;;;;;;;;;;6.54;66.45;99880.38;5028298;28;19925;-83
2022/03/18 06:29:43;;;;;;;;;;;;;;;6.64;66.29;99886.00;5035822;28;20059;-81
2022/03/18 06:32:11;;;;;;;;;;;;;;;6.66;66.36;99883.06;5036306;28;20409;-81
2022/03/18 06:34:39;;;;;;;;;;;;;;;6.63;66.38;99887.06;5014355;28;20011;-80
2022/03/18 06:37:07;;;;;;;;;;;;;;;6.65;66.08;99893.03;5029232;28;19925;-81
2022/03/18 06:39:36;;;;;;;;;;;;;;;6.80;65.92;99892.56;5034987;28;20067;-81
2022/03/18 06:42:05;;;;;;;;;;;;;;;6.82;65.72;99902.09;5026041;28;19925;-80
2022/03/18 06:44:35;;;;;;;;;;;;;;;6.94;65.10;99906.63;5008665;28;19925;-80
2022/03/18 06:47:05;;;;;;;;;;;;;;;6.89;65.25;99911.94;4998207;28;20066;-82
2022/03/18 06:49:36;;;;;;;;;;;;;;;6.85;65.31;99918.88;5030987;28;19925;-79
2022/03/18 06:52:07;;;;;;;;;;;;;;;6.73;65.45;99916.19;5033328;28;19925;-77
2022/03/18 06:54:35;;;;;;;;;;;;;;;6.80;65.86;99924.97;5032675;28;19972;-78
2022/03/18 06:57:04;;;;;;;;;;;;;;;6.80;65.71;99920.38;5031412;28;19955;-78
2022/03/18 06:59:33;;;;;;;;;;;;;;;6.81;65.44;99923.91;5039428;28;19933;-77
2022/03/18 07:02:01;;;;;;;;;;;;;;;6.99;65.03;99931.88;5033250;28;19937;-81
2022/03/18 07:04:38;;;;;;;;;;;;;;;6.89;65.40;99925.44;5011373;28;19994;-80
2022/03/18 07:12:55;;;;;;;;;;;;;;;6.92;64.98;99931.16;4923228;29;20397;-90
2022/03/18 07:15:30;;;;;;;;;;;;;;;6.80;64.95;99928.50;4950275;28;20433;-91
2022/03/18 11:27:13;;;;;;;;;;;;;;;11.85;47.82;100072.53;5078780;23;19926;-90
2022/03/18 11:33:38;;;;;;;;;;;;;;;11.84;46.98;100070.91;4931801;28;19977;-90
2022/03/18 11:57:46;;;;;;;;;;;;;;;11.71;46.87;100077.63;5932878;23;19926;-84
2022/03/18 12:06:17;;;;;;;;;;;;;;;11.82;47.88;100078.50;5587920;23;19926;-89
2022/03/18 12:09:32;;;;;;;;;;;;;;;12.22;46.82;100072.38;4999934;28;19925;-91
2022/03/18 12:15:02;;;;;;;;;;;;;;;12.05;47.07;100073.44;5516968;23;19926;-87
2022/03/18 12:20:51;;;;;;;;;;;;;;;11.93;46.55;100078.31;5171935;23;19930;-88
2022/03/18 12:45:17;;;;;;;;;;;;;;;12.00;46.59;100069.88;5200881;23;19961;-90
2022/03/18 12:47:50;;;;;;;;;;;;;;;11.79;47.07;100063.50;5180678;23;19925;-87
2022/03/18 13:32:50;;;;;;;;;;;;;;;11.90;47.28;100057.03;4929679;29;20021;-75
2022/03/18 13:34:54;;;;;;;;;;;;;;;12.09;46.96;100056.53;4919731;28;19927;-75
2022/03/18 13:37:24;;;;;;;;;;;;;;;11.66;47.71;100053.09;4966477;28;19926;-75
2022/03/18 13:40:03;;;;;;;;;;;;;;;11.95;48.14;100051.59;4938843;28;19949;-75
2022/03/18 13:42:32;;;;;;;;;;;;;;;11.95;47.37;100048.06;4935664;28;19938;-75
2022/03/18 13:45:24;;;;;;;;;;;;;;;12.15;47.46;100050.03;4935800;29;20281;-75
2022/03/18 13:47:52;;;;;;;;;;;;;;;11.98;47.23;100056.50;4961948;28;20380;-75
2022/03/18 13:50:21;;;;;;;;;;;;;;;11.87;47.12;100046.66;4955646;28;19977;-75
2022/03/18 13:52:50;;;;;;;;;;;;;;;11.92;47.45;100051.31;4938021;28;19930;-74
2022/03/18 13:55:28;;;;;;;;;;;;;;;11.97;47.07;100049.41;4952901;28;19927;-75
2022/03/18 13:57:57;;;;;;;;;;;;;;;11.93;47.33;100044.78;4964681;28;19937;-75
2022/03/18 14:00:34;;;;;;;;;;;;;;;12.03;47.55;100048.34;4955114;28;19974;-74
2022/03/18 14:03:05;;;;;;;;;;;;;;;11.86;47.49;100042.31;4945846;28;19959;-75
2022/03/18 14:05:34;;;;;;;;;;;;;;;11.98;48.47;100042.88;4949424;28;19935;-73
2022/03/18 14:08:03;;;;;;;;;;;;;;;12.08;47.06;100033.91;4960437;28;19927;-73
2022/03/18 14:10:36;;;;;;;;;;;;;;;12.00;47.86;100037.19;4931895;29;19931;-72
2022/03/18 14:13:06;;;;;;;;;;;;;;;12.15;48.39;100044.59;4935273;28;20021;-72
2022/03/18 14:16:00;;;;;;;;;;;;;;;11.61;49.53;100039.47;4955859;28;19931;-73
2022/03/18 14:18:40;;;;;;;;;;;;;;;11.59;56.30;100038.91;4946563;28;19930;-74
2022/03/18 14:21:11;;;;;;;;;;;;;;;11.14;56.20;100035.69;4949528;28;19935;-73
2022/03/18 14:23:44;;;;;;;;;;;;;;;11.00;55.84;100043.50;4946312;28;20392;-73
2022/03/18 14:26:12;;;;;;;;;;;;;;;10.82;53.32;100033.03;4941860;28;20342;-73
2022/03/18 14:28:41;;;;;;;;;;;;;;;10.83;53.31;100040.13;4927253;29;20322;-74
2022/03/18 14:31:13;;;;;;;;;;;;;;;11.00;53.52;100037.22;4930653;29;19938;-75
2022/03/18 14:33:41;;;;;;;;;;;;;;;11.08;53.01;100042.19;4906750;29;19942;-76
2022/03/18 14:36:23;;;;;;;;;;;;;;;10.79;52.86;100033.56;4905837;29;20470;-75
2022/03/18 14:38:52;;;;;;;;;;;;;;;10.61;53.96;100031.25;4929176;29;19927;-75
2022/03/18 14:41:22;;;;;;;;;;;;;;;10.63;54.43;100018.22;4895816;29;20412;-77
2022/03/18 14:43:51;;;;;;;;;;;;;;;10.52;54.38;100030.91;4927869;29;20089;-74
2022/03/18 14:46:23;;;;;;;;;;;;;;;10.30;55.33;100025.53;4935805;29;19931;-75
2022/03/18 14:48:51;;;;;;;;;;;;;;;10.34;55.19;100028.56;4944950;29;19956;-74
2022/03/18 14:51:22;;;;;;;;;;;;;;;10.17;55.65;100036.78;4939752;29;20732;-74
2022/03/18 14:53:50;;;;;;;;;;;;;;;10.03;55.12;100033.66;4914153;29;20014;-74
2022/03/18 14:56:18;;;;;;;;;;;;;;;10.16;56.82;100038.69;4933177;29;19927;-72
2022/03/18 14:58:47;;;;;;;;;;;;;;;10.30;55.10;100030.97;4932051;29;19930;-71
2022/03/18 15:01:17;;;;;;;;;;;;;;;10.33;55.21;100029.63;4917009;29;19978;-73
2022/03/18 15:03:49;;;;;;;;;;;;;;;10.42;55.32;100030.81;4916146;29;20370;-73
2022/03/18 15:06:19;;;;;;;;;;;;;;;10.34;54.97;100029.38;4948221;29;20381;-72
2022/03/18 15:08:47;;;;;;;;;;;;;;;10.52;54.39;100033.59;4938253;29;19930;-72
2022/03/18 15:11:39;;;;;;;;;;;;;;;10.57;56.71;100030.13;4919149;29;20301;-76
2022/03/18 15:14:08;;;;;;;;;;;;;;;10.61;56.30;100026.63;4912862;29;20812;-72
2022/03/18 15:16:37;;;;;;;;;;;;;;;10.55;53.12;100035.00;4920011;29;19938;-72
2022/03/18 15:19:07;;;;;;;;;;;;;;;10.55;58.34;100037.72;4910223;29;20413;-76
2022/03/18 15:21:38;;;;;;;;;;;;;;;10.52;54.49;100038.22;4916815;29;19966;-78
2022/03/18 15:24:06;;;;;;;;;;;;;;;10.78;54.48;100042.78;4932866;29;20029;-79
2022/03/18 15:26:38;;;;;;;;;;;;;;;11.00;54.56;100034.50;4952544;28;20016;-75
2022/03/18 15:29:07;;;;;;;;;;;;;;;11.05;52.88;100039.19;4974176;28;20028;-74
2022/03/18 15:31:35;;;;;;;;;;;;;;;11.04;52.33;100041.06;4972601;28;19926;-76
2022/03/18 15:34:03;;;;;;;;;;;;;;;11.21;52.29;100046.34;4975695;28;19926;-76
2022/03/18 15:36:34;;;;;;;;;;;;;;;11.24;52.47;100051.28;4958828;28;19937;-75
2022/03/18 15:39:04;;;;;;;;;;;;;;;11.13;51.98;100044.94;4978494;28;20034;-75
2022/03/18 15:41:35;;;;;;;;;;;;;;;11.20;54.46;100050.97;4956796;28;19929;-75
2022/03/18 15:44:05;;;;;;;;;;;;;;;11.18;55.28;100049.56;4932608;28;20352;-73
2022/03/18 15:46:35;;;;;;;;;;;;;;;11.24;54.98;100054.00;4947253;28;19993;-75
2022/03/18 15:49:03;;;;;;;;;;;;;;;11.09;52.79;100049.28;4951845;28;19926;-76
2022/03/18 15:51:34;;;;;;;;;;;;;;;11.22;50.45;100056.97;4949864;28;20532;-76
2022/03/18 15:54:07;;;;;;;;;;;;;;;11.06;52.71;100054.41;4986979;28;19929;-76
2022/03/18 15:56:38;;;;;;;;;;;;;;;10.96;51.42;100055.16;4980607;28;20020;-76
2022/03/18 15:59:07;;;;;;;;;;;;;;;11.02;51.33;100059.53;4983037;28;19926;-76
2022/03/18 16:01:36;;;;;;;;;;;;;;;10.95;52.68;100065.22;4958269;28;19948;-76
2022/03/18 16:04:05;;;;;;;;;;;;;;;11.06;51.68;100059.84;4973853;28;19927;-76
2022/03/18 16:06:36;;;;;;;;;;;;;;;10.92;51.98;100060.31;4967309;28;19954;-76
2022/03/18 16:09:05;;;;;;;;;;;;;;;10.79;53.34;100058.03;4962230;28;19926;-76
2022/03/18 16:11:33;;;;;;;;;;;;;;;10.70;55.27;100063.09;4986206;28;20354;-75
2022/03/18 16:14:03;;;;;;;;;;;;;;;10.71;52.99;100063.97;4957482;28;19962;-73
2022/03/18 16:16:32;;;;;;;;;;;;;;;10.74;54.74;100071.56;4955901;28;19930;-73
2022/03/18 16:19:30;;;;;;;;;;;;;;;10.62;54.47;100073.66;4968422;28;19933;-73
2022/03/18 16:22:03;;;;;;;;;;;;;;;10.74;53.02;100074.28;4951649;28;20448;-76
2022/03/18 16:24:31;;;;;;;;;;;;;;;10.48;54.90;100087.66;4961214;28;20135;-76
2022/03/18 16:27:01;;;;;;;;;;;;;;;10.42;54.59;100093.31;4956880;28;20304;-75
2022/03/18 16:29:29;;;;;;;;;;;;;;;10.34;54.54;100085.63;4976278;28;20411;-76
2022/03/18 16:32:03;;;;;;;;;;;;;;;10.33;54.69;100092.94;4979732;28;19926;-76
2022/03/18 16:34:44;;;;;;;;;;;;;;;10.42;54.68;100102.28;5387855;22;19947;-78
2022/03/18 16:41:50;;;;;;;;;;;;;;;9.89;55.76;100124.72;4941564;28;19930;-72
2022/03/18 16:44:20;;;;;;;;;;;;;;;9.56;56.74;100120.22;4927278;28;19941;-76
2022/03/18 16:49:39;;;;;;;;;;;;;;;9.46;57.23;100118.19;4940339;28;19926;-79
2022/03/18 16:55:03;;;;;;;;;;;;;;;9.10;57.73;100136.63;4983205;23;19977;-79
2022/03/18 16:57:35;;;;;;;;;;;;;;;9.12;58.21;100131.00;4960991;28;19977;-77
2022/03/18 17:00:09;;;;;;;;;;;;;;;9.02;58.24;100138.97;4964175;28;19969;-78
2022/03/18 17:02:38;;;;;;;;;;;;;;;8.82;58.48;100134.00;4957694;28;19930;-76
2022/03/18 17:05:10;;;;;;;;;;;;;;;8.97;58.63;100147.00;4948549;28;19934;-77
2022/03/18 17:07:39;;;;;;;;;;;;;;;8.54;59.66;100153.84;4946154;28;22105;-77
2022/03/18 17:10:09;;;;;;;;;;;;;;;8.74;60.48;100153.41;4965792;28;19910;-79
2022/03/18 17:12:40;;;;;;;;;;;;;;;8.73;59.40;100163.41;4964176;28;20031;-78
2022/03/18 17:15:14;;;;;;;;;;;;;;;8.74;58.64;100175.91;4947411;28;19941;-80
2022/03/18 17:18:33;;;;;;;;;;;;;;;8.24;59.46;100181.94;4968828;28;20392;-78
2022/03/18 17:21:27;;;;;;;;;;;;;;;8.24;60.63;100190.06;4947171;28;19941;-75
2022/03/18 17:23:55;;;;;;;;;;;;;;;7.94;60.74;100192.16;4938741;28;19941;-77
2022/03/18 17:26:23;;;;;;;;;;;;;;;7.76;61.81;100196.63;4931209;28;19933;-76
2022/03/18 17:28:51;;;;;;;;;;;;;;;7.83;62.91;100205.47;4933283;28;20037;-76
2022/03/18 17:31:21;;;;;;;;;;;;;;;7.72;60.99;100214.41;4949632;28;19977;-75
2022/03/18 17:33:49;;;;;;;;;;;;;;;7.51;61.60;100215.00;4954685;28;20291;-76
2022/03/18 17:36:19;;;;;;;;;;;;;;;7.45;62.53;100221.34;4936200;28;20355;-76
2022/03/18 17:38:48;;;;;;;;;;;;;;;7.49;61.90;100222.53;4954711;28;20328;-75
2022/03/18 17:41:16;;;;;;;;;;;;;;;7.27;62.07;100235.78;4944225;28;19949;-76
2022/03/18 17:43:50;;;;;;;;;;;;;;;7.24;63.00;100244.34;4953140;28;20320;-77
2022/03/18 17:46:19;;;;;;;;;;;;;;;7.16;63.87;100245.53;4939923;28;20515;-76
2022/03/18 17:48:51;;;;;;;;;;;;;;;7.18;63.02;100254.22;4928856;28;20823;-77
2022/03/18 17:51:21;;;;;;;;;;;;;;;7.16;63.99;100259.03;4947112;28;20028;-76
2022/03/18 17:53:52;;;;;;;;;;;;;;;7.18;63.46;100254.22;4944597;28;20484;-76
2022/03/18 17:56:20;;;;;;;;;;;;;;;7.14;62.91;100263.88;4937466;28;19946;-76
2022/03/18 17:58:50;;;;;;;;;;;;;;;7.01;63.92;100262.16;4930001;29;20262;-76
2022/03/18 18:01:21;;;;;;;;;;;;;;;7.04;63.61;100269.84;4926915;29;19946;-76
2022/03/18 18:03:52;;;;;;;;;;;;;;;6.97;63.60;100258.28;4921527;28;19982;-74
2022/03/18 18:06:20;;;;;;;;;;;;;;;6.93;63.45;100267.09;4938516;28;19935;-72
2022/03/18 18:08:48;;;;;;;;;;;;;;;6.89;63.92;100266.72;4926501;29;19934;-72
2022/03/18 18:11:46;;;;;;;;;;;;;;;6.92;64.51;100274.34;4939701;28;19930;-72
2022/03/18 18:14:15;;;;;;;;;;;;;;;6.86;64.01;100274.44;4930978;28;19937;-73
2022/03/18 18:16:48;;;;;;;;;;;;;;;6.73;63.86;100279.00;4940905;28;19935;-72
2022/03/18 18:22:06;;;;;;;;;;;;;;;6.82;64.22;100287.63;4922083;28;19926;-72
2022/03/18 18:24:36;;;;;;;;;;;;;;;6.78;64.19;100297.22;4910960;28;19937;-72
2022/03/18 18:27:05;;;;;;;;;;;;;;;6.64;64.15;100299.25;4923791;28;19981;-72
2022/03/18 18:29:35;;;;;;;;;;;;;;;6.60;65.02;100295.34;4937539;28;20005;-73
2022/03/18 18:32:03;;;;;;;;;;;;;;;6.68;64.51;100295.06;4937151;28;19936;-72
2022/03/18 18:34:32;;;;;;;;;;;;;;;6.70;63.99;100300.22;4924628;28;19935;-73
2022/03/18 18:37:01;;;;;;;;;;;;;;;6.84;64.32;100296.31;4927422;28;19937;-73
2022/03/18 18:39:30;;;;;;;;;;;;;;;6.73;63.22;100294.38;4938558;28;19930;-73
2022/03/18 18:41:58;;;;;;;;;;;;;;;6.78;63.07;100298.03;4941714;28;20373;-72
2022/03/18 18:44:27;;;;;;;;;;;;;;;6.86;63.01;100293.38;4927201;28;19930;-72
2022/03/18 18:46:56;;;;;;;;;;;;;;;6.72;63.41;100293.56;4926875;28;19942;-72
2022/03/18 18:49:24;;;;;;;;;;;;;;;6.64;63.59;100296.56;4930213;28;19933;-72
2022/03/18 18:51:54;;;;;;;;;;;;;;;6.69;64.02;100295.88;4931913;28;20045;-73
2022/03/18 18:54:23;;;;;;;;;;;;;;;6.80;63.34;100295.94;4940046;28;20286;-72
2022/03/18 18:56:52;;;;;;;;;;;;;;;6.69;64.27;100288.59;4919857;28;19926;-72
2022/03/18 18:59:20;;;;;;;;;;;;;;;6.49;64.30;100298.81;4929264;28;20375;-72
2022/03/18 19:01:53;;;;;;;;;;;;;;;6.52;64.12;100299.19;4927699;28;19942;-72
2022/03/18 19:04:22;;;;;;;;;;;;;;;6.62;63.20;100293.28;4928561;29;20029;-79
2022/03/18 19:06:53;;;;;;;;;;;;;;;6.59;63.90;100292.88;4929182;29;19930;-78
2022/03/18 19:09:23;;;;;;;;;;;;;;;6.62;64.04;100290.56;4911559;29;19941;-78
2022/03/18 19:11:53;;;;;;;;;;;;;;;6.58;63.63;100297.47;4936586;29;19934;-78
2022/03/18 19:14:21;;;;;;;;;;;;;;;6.71;63.45;100296.47;4926567;29;19941;-78
2022/03/18 19:16:51;;;;;;;;;;;;;;;6.76;64.08;100292.03;4939846;28;19935;-78
2022/03/18 19:19:19;;;;;;;;;;;;;;;6.89;63.76;100303.72;4940234;28;19930;-78
2022/03/18 19:21:47;;;;;;;;;;;;;;;6.88;62.65;100307.50;4926943;28;19927;-78
2022/03/18 19:24:16;;;;;;;;;;;;;;;6.76;63.67;100305.53;4926960;29;19934;-78
2022/03/18 19:26:45;;;;;;;;;;;;;;;6.65;62.72;100297.38;4923496;29;19941;-78
2022/03/18 19:32:29;;;;;;;;;;;;;;;6.40;63.53;100311.81;4966143;28;20697;-73
2022/03/18 19:35:19;;;;;;;;;;;;;;;6.39;64.46;100315.56;5003252;28;19957;-73
2022/03/18 19:37:48;;;;;;;;;;;;;;;6.47;64.72;100317.13;5005649;28;19932;-73
2022/03/18 19:40:17;;;;;;;;;;;;;;;6.41;63.46;100320.75;5000882;28;19930;-73
2022/03/18 19:42:47;;;;;;;;;;;;;;;6.43;64.46;100321.31;4968762;28;20411;-73
2022/03/18 19:45:14;;;;;;;;;;;;;;;6.50;63.97;100322.09;4988536;28;19929;-72
2022/03/18 19:47:43;;;;;;;;;;;;;;;6.29;63.76;100329.59;4999195;28;19930;-73
2022/03/18 19:50:14;;;;;;;;;;;;;;;6.16;64.13;100324.31;5000265;28;19930;-72
2022/03/18 19:52:42;;;;;;;;;;;;;;;6.27;64.13;100331.66;5002961;28;19929;-72
2022/03/18 19:55:11;;;;;;;;;;;;;;;6.42;63.61;100325.91;4994980;28;19933;-72
2022/03/18 20:03:11;;;;;;;;;;;;;;;6.44;62.79;100333.78;5003449;28;19957;-73
2022/03/18 20:05:41;;;;;;;;;;;;;;;6.44;63.48;100333.78;4985801;28;20380;-73
2022/03/18 20:08:13;;;;;;;;;;;;;;;6.38;63.66;100329.28;4966462;28;19934;-74
2022/03/18 20:10:41;;;;;;;;;;;;;;;6.41;63.65;100328.84;5000593;28;19952;-73
2022/03/18 20:13:09;;;;;;;;;;;;;;;6.48;62.75;100332.28;5018059;28;20670;-73
2022/03/18 20:15:39;;;;;;;;;;;;;;;6.56;62.28;100329.28;4990016;28;19933;-73
2022/03/18 20:18:32;;;;;;;;;;;;;;;6.55;62.73;100338.41;4984352;28;19925;-72
2022/03/18 20:21:01;;;;;;;;;;;;;;;6.56;62.69;100340.09;4981847;28;19926;-73
2022/03/18 20:23:36;;;;;;;;;;;;;;;6.61;62.87;100334.03;5009032;28;19934;-73
2022/03/18 20:26:06;;;;;;;;;;;;;;;6.46;62.40;100329.00;4996101;28;19926;-73
2022/03/18 20:28:34;;;;;;;;;;;;;;;6.60;62.47;100327.75;4989918;28;19934;-73
2022/03/18 20:31:06;;;;;;;;;;;;;;;6.70;62.57;100333.47;4994434;28;20387;-73